sensor_id;sensor_type;location;lat;lon;timestamp;P1;durP1;ratioP1;P2;durP2;ratioP2
74269;SDS011;62754;48.252;11.654;2022-12-18T00:00:31;36.30;;;14.82;;
74269;SDS011;62754;48.252;11.654;2022-12-18T00:02:57;40.70;;;15.52;;
74269;SDS011;62754;48.252;11.654;2022-12-18T00:05:22;42.13;;;17.23;;
74269;SDS011;62754;48.252;11.654;2022-12-18T00:07:48;44.72;;;18.67;;
74269;SDS011;62754;48.252;11.654;2022-12-18T00:10:14;48.70;;;18.35;;
74269;SDS011;62754;48.252;11.654;2022-12-18T00:12:40;43.92;;;17.45;;
74269;SDS011;62754;48.252;11.654;2022-12-18T00:15:05;43.70;;;18.83;;
74269;SDS011;62754;48.252;11.654;2022-12-18T00:17:32;44.35;;;17.60;;
74269;SDS011;62754;48.252;11.654;2022-12-18T00:19:57;52.85;;;20.48;;
74269;SDS011;62754;48.252;11.654;2022-12-18T00:22:23;50.33;;;20.30;;
74269;SDS011;62754;48.252;11.654;2022-12-18T00:24:49;47.33;;;19.35;;
74269;SDS011;62754;48.252;11.654;2022-12-18T00:27:15;51.70;;;19.33;;
74269;SDS011;62754;48.252;11.654;2022-12-18T00:29:40;46.55;;;19.27;;
74269;SDS011;62754;48.252;11.654;2022-12-18T00:32:06;45.35;;;17.58;;
74269;SDS011;62754;48.252;11.654;2022-12-18T00:34:32;41.10;;;17.20;;
74269;SDS011;62754;48.252;11.654;2022-12-18T00:36:57;43.17;;;18.50;;
74269;SDS011;62754;48.252;11.654;2022-12-18T00:39:23;45.50;;;17.85;;
74269;SDS011;62754;48.252;11.654;2022-12-18T00:41:49;49.38;;;18.08;;
74269;SDS011;62754;48.252;11.654;2022-12-18T00:44:16;44.45;;;18.10;;
74269;SDS011;62754;48.252;11.654;2022-12-18T00:46:42;45.50;;;18.63;;
74269;SDS011;62754;48.252;11.654;2022-12-18T00:49:09;46.40;;;18.02;;
74269;SDS011;62754;48.252;11.654;2022-12-18T00:51:35;43.17;;;17.65;;
74269;SDS011;62754;48.252;11.654;2022-12-18T00:54:01;48.90;;;18.13;;
74269;SDS011;62754;48.252;11.654;2022-12-18T00:56:26;40.70;;;17.25;;
74269;SDS011;62754;48.252;11.654;2022-12-18T00:58:52;43.55;;;16.90;;
74269;SDS011;62754;48.252;11.654;2022-12-18T01:01:18;41.70;;;17.02;;
74269;SDS011;62754;48.252;11.654;2022-12-18T01:03:44;43.63;;;18.92;;
74269;SDS011;62754;48.252;11.654;2022-12-18T01:06:11;43.75;;;18.70;;
74269;SDS011;62754;48.252;11.654;2022-12-18T01:11:10;43.33;;;15.82;;
74269;SDS011;62754;48.252;11.654;2022-12-18T01:13:38;41.35;;;17.13;;
74269;SDS011;62754;48.252;11.654;2022-12-18T01:16:05;42.20;;;16.80;;
74269;SDS011;62754;48.252;11.654;2022-12-18T01:18:31;43.00;;;17.33;;
74269;SDS011;62754;48.252;11.654;2022-12-18T01:20:57;47.00;;;18.25;;
74269;SDS011;62754;48.252;11.654;2022-12-18T01:23:22;47.13;;;17.80;;
74269;SDS011;62754;48.252;11.654;2022-12-18T01:25:48;43.17;;;17.75;;
74269;SDS011;62754;48.252;11.654;2022-12-18T01:28:14;44.17;;;17.08;;
74269;SDS011;62754;48.252;11.654;2022-12-18T01:30:40;46.45;;;16.52;;
74269;SDS011;62754;48.252;11.654;2022-12-18T01:33:05;46.42;;;17.90;;
74269;SDS011;62754;48.252;11.654;2022-12-18T01:35:31;41.03;;;16.88;;
74269;SDS011;62754;48.252;11.654;2022-12-18T01:37:57;43.08;;;16.67;;
74269;SDS011;62754;48.252;11.654;2022-12-18T01:40:23;39.22;;;14.52;;
74269;SDS011;62754;48.252;11.654;2022-12-18T01:42:50;38.30;;;15.80;;
74269;SDS011;62754;48.252;11.654;2022-12-18T01:45:27;42.90;;;17.02;;
74269;SDS011;62754;48.252;11.654;2022-12-18T01:48:02;43.80;;;17.02;;
74269;SDS011;62754;48.252;11.654;2022-12-18T01:50:38;43.58;;;16.55;;
74269;SDS011;62754;48.252;11.654;2022-12-18T01:53:09;41.35;;;15.90;;
74269;SDS011;62754;48.252;11.654;2022-12-18T01:55:40;39.67;;;15.27;;
74269;SDS011;62754;48.252;11.654;2022-12-18T01:58:10;39.03;;;14.73;;
74269;SDS011;62754;48.252;11.654;2022-12-18T02:00:36;38.90;;;16.48;;
74269;SDS011;62754;48.252;11.654;2022-12-18T02:03:02;44.00;;;17.08;;
74269;SDS011;62754;48.252;11.654;2022-12-18T02:18:45;38.88;;;15.57;;
74269;SDS011;62754;48.252;11.654;2022-12-18T02:26:50;36.53;;;12.70;;
74269;SDS011;62754;48.252;11.654;2022-12-18T02:29:39;35.53;;;15.15;;
74269;SDS011;62754;48.252;11.654;2022-12-18T02:32:10;38.92;;;15.68;;
74269;SDS011;62754;48.252;11.654;2022-12-18T02:34:40;42.00;;;16.40;;
74269;SDS011;62754;48.252;11.654;2022-12-18T02:37:07;38.00;;;15.45;;
74269;SDS011;62754;48.252;11.654;2022-12-18T02:42:08;37.15;;;14.45;;
74269;SDS011;62754;48.252;11.654;2022-12-18T02:44:34;37.60;;;13.93;;
74269;SDS011;62754;48.252;11.654;2022-12-18T02:47:08;41.30;;;15.32;;
74269;SDS011;62754;48.252;11.654;2022-12-18T02:49:38;33.75;;;13.90;;
74269;SDS011;62754;48.252;11.654;2022-12-18T03:00:41;35.88;;;13.18;;
74269;SDS011;62754;48.252;11.654;2022-12-18T03:05:58;35.70;;;13.43;;
74269;SDS011;62754;48.252;11.654;2022-12-18T03:08:31;32.30;;;13.20;;
74269;SDS011;62754;48.252;11.654;2022-12-18T03:11:03;32.47;;;13.77;;
74269;SDS011;62754;48.252;11.654;2022-12-18T03:13:32;33.42;;;13.65;;
74269;SDS011;62754;48.252;11.654;2022-12-18T03:16:05;37.78;;;14.35;;
74269;SDS011;62754;48.252;11.654;2022-12-18T03:18:35;37.03;;;14.20;;
74269;SDS011;62754;48.252;11.654;2022-12-18T03:21:05;34.42;;;14.60;;
74269;SDS011;62754;48.252;11.654;2022-12-18T03:23:38;38.28;;;14.40;;
74269;SDS011;62754;48.252;11.654;2022-12-18T03:26:09;37.53;;;14.18;;
74269;SDS011;62754;48.252;11.654;2022-12-18T03:28:43;37.28;;;13.73;;
74269;SDS011;62754;48.252;11.654;2022-12-18T03:31:12;37.17;;;14.55;;
74269;SDS011;62754;48.252;11.654;2022-12-18T03:36:11;29.77;;;11.85;;
74269;SDS011;62754;48.252;11.654;2022-12-18T03:38:37;28.15;;;11.40;;
74269;SDS011;62754;48.252;11.654;2022-12-18T03:41:07;32.22;;;12.55;;
74269;SDS011;62754;48.252;11.654;2022-12-18T03:52:01;29.48;;;12.20;;
74269;SDS011;62754;48.252;11.654;2022-12-18T03:54:31;31.10;;;12.10;;
74269;SDS011;62754;48.252;11.654;2022-12-18T03:57:09;28.80;;;11.32;;
74269;SDS011;62754;48.252;11.654;2022-12-18T03:59:38;33.42;;;13.77;;
74269;SDS011;62754;48.252;11.654;2022-12-18T04:02:06;36.70;;;13.52;;
74269;SDS011;62754;48.252;11.654;2022-12-18T04:04:34;36.97;;;14.57;;
74269;SDS011;62754;48.252;11.654;2022-12-18T04:07:03;35.78;;;13.35;;
74269;SDS011;62754;48.252;11.654;2022-12-18T04:09:30;32.60;;;13.07;;
74269;SDS011;62754;48.252;11.654;2022-12-18T04:11:58;28.83;;;11.25;;
74269;SDS011;62754;48.252;11.654;2022-12-18T04:14:23;29.63;;;11.10;;
74269;SDS011;62754;48.252;11.654;2022-12-18T04:16:49;34.45;;;13.30;;
74269;SDS011;62754;48.252;11.654;2022-12-18T04:19:15;29.67;;;11.93;;
74269;SDS011;62754;48.252;11.654;2022-12-18T04:21:41;28.08;;;11.73;;
74269;SDS011;62754;48.252;11.654;2022-12-18T04:24:07;32.63;;;13.00;;
74269;SDS011;62754;48.252;11.654;2022-12-18T04:26:32;31.58;;;12.13;;
74269;SDS011;62754;48.252;11.654;2022-12-18T04:28:58;38.80;;;13.65;;
74269;SDS011;62754;48.252;11.654;2022-12-18T04:31:24;31.45;;;11.45;;
74269;SDS011;62754;48.252;11.654;2022-12-18T04:33:50;30.38;;;12.23;;
74269;SDS011;62754;48.252;11.654;2022-12-18T04:36:15;33.78;;;12.93;;
74269;SDS011;62754;48.252;11.654;2022-12-18T04:38:41;33.08;;;13.18;;
74269;SDS011;62754;48.252;11.654;2022-12-18T04:41:07;28.23;;;11.88;;
74269;SDS011;62754;48.252;11.654;2022-12-18T04:43:33;29.40;;;12.77;;
74269;SDS011;62754;48.252;11.654;2022-12-18T04:46:02;30.52;;;12.93;;
74269;SDS011;62754;48.252;11.654;2022-12-18T04:48:29;26.90;;;12.30;;
74269;SDS011;62754;48.252;11.654;2022-12-18T04:50:55;30.40;;;11.93;;
74269;SDS011;62754;48.252;11.654;2022-12-18T04:53:21;31.02;;;12.60;;
74269;SDS011;62754;48.252;11.654;2022-12-18T04:55:47;31.10;;;12.65;;
74269;SDS011;62754;48.252;11.654;2022-12-18T04:58:12;28.67;;;11.40;;
74269;SDS011;62754;48.252;11.654;2022-12-18T05:00:38;28.38;;;11.30;;
74269;SDS011;62754;48.252;11.654;2022-12-18T05:03:04;30.13;;;11.93;;
74269;SDS011;62754;48.252;11.654;2022-12-18T05:05:30;29.23;;;11.50;;
74269;SDS011;62754;48.252;11.654;2022-12-18T05:07:55;30.15;;;12.63;;
74269;SDS011;62754;48.252;11.654;2022-12-18T05:10:21;31.73;;;12.05;;
74269;SDS011;62754;48.252;11.654;2022-12-18T05:12:47;28.52;;;12.02;;
74269;SDS011;62754;48.252;11.654;2022-12-18T05:15:13;32.40;;;13.43;;
74269;SDS011;62754;48.252;11.654;2022-12-18T05:17:38;37.00;;;12.68;;
74269;SDS011;62754;48.252;11.654;2022-12-18T05:20:04;30.85;;;12.02;;
74269;SDS011;62754;48.252;11.654;2022-12-18T05:22:30;33.65;;;12.35;;
74269;SDS011;62754;48.252;11.654;2022-12-18T05:24:56;28.45;;;11.48;;
74269;SDS011;62754;48.252;11.654;2022-12-18T05:27:22;24.52;;;11.32;;
74269;SDS011;62754;48.252;11.654;2022-12-18T05:29:47;29.05;;;13.55;;
74269;SDS011;62754;48.252;11.654;2022-12-18T05:32:13;33.47;;;12.82;;
74269;SDS011;62754;48.252;11.654;2022-12-18T05:34:39;29.40;;;11.57;;
74269;SDS011;62754;48.252;11.654;2022-12-18T05:37:05;27.55;;;12.05;;
74269;SDS011;62754;48.252;11.654;2022-12-18T05:39:30;34.05;;;13.75;;
74269;SDS011;62754;48.252;11.654;2022-12-18T05:41:56;33.60;;;12.35;;
74269;SDS011;62754;48.252;11.654;2022-12-18T05:44:22;30.77;;;12.93;;
74269;SDS011;62754;48.252;11.654;2022-12-18T05:46:48;34.22;;;13.68;;
74269;SDS011;62754;48.252;11.654;2022-12-18T05:49:13;32.60;;;11.93;;
74269;SDS011;62754;48.252;11.654;2022-12-18T05:51:39;32.28;;;11.95;;
74269;SDS011;62754;48.252;11.654;2022-12-18T05:54:05;33.15;;;13.15;;
74269;SDS011;62754;48.252;11.654;2022-12-18T05:56:30;31.92;;;12.35;;
74269;SDS011;62754;48.252;11.654;2022-12-18T05:58:56;29.83;;;11.63;;
74269;SDS011;62754;48.252;11.654;2022-12-18T06:01:23;31.30;;;13.00;;
74269;SDS011;62754;48.252;11.654;2022-12-18T06:03:50;26.77;;;12.77;;
74269;SDS011;62754;48.252;11.654;2022-12-18T06:06:20;30.77;;;12.02;;
74269;SDS011;62754;48.252;11.654;2022-12-18T06:08:51;30.58;;;12.02;;
74269;SDS011;62754;48.252;11.654;2022-12-18T06:11:18;35.25;;;13.15;;
74269;SDS011;62754;48.252;11.654;2022-12-18T06:13:46;34.22;;;12.40;;
74269;SDS011;62754;48.252;11.654;2022-12-18T06:16:15;29.67;;;12.77;;
74269;SDS011;62754;48.252;11.654;2022-12-18T06:18:40;29.00;;;11.75;;
74269;SDS011;62754;48.252;11.654;2022-12-18T06:21:06;29.27;;;12.50;;
74269;SDS011;62754;48.252;11.654;2022-12-18T06:23:32;30.08;;;12.30;;
74269;SDS011;62754;48.252;11.654;2022-12-18T06:25:58;28.98;;;12.07;;
74269;SDS011;62754;48.252;11.654;2022-12-18T06:28:24;27.60;;;11.30;;
74269;SDS011;62754;48.252;11.654;2022-12-18T06:30:49;28.92;;;12.45;;
74269;SDS011;62754;48.252;11.654;2022-12-18T06:33:15;27.92;;;11.07;;
74269;SDS011;62754;48.252;11.654;2022-12-18T06:35:42;29.98;;;11.55;;
74269;SDS011;62754;48.252;11.654;2022-12-18T06:38:07;28.48;;;12.10;;
74269;SDS011;62754;48.252;11.654;2022-12-18T06:40:33;27.63;;;12.13;;
74269;SDS011;62754;48.252;11.654;2022-12-18T06:42:59;32.10;;;11.48;;
74269;SDS011;62754;48.252;11.654;2022-12-18T06:45:25;27.20;;;11.52;;
74269;SDS011;62754;48.252;11.654;2022-12-18T06:47:50;30.48;;;11.25;;
74269;SDS011;62754;48.252;11.654;2022-12-18T06:50:16;34.35;;;12.73;;
74269;SDS011;62754;48.252;11.654;2022-12-18T06:52:42;32.70;;;12.75;;
74269;SDS011;62754;48.252;11.654;2022-12-18T06:55:08;31.85;;;12.27;;
74269;SDS011;62754;48.252;11.654;2022-12-18T06:57:33;29.35;;;11.00;;
74269;SDS011;62754;48.252;11.654;2022-12-18T06:59:59;33.42;;;12.40;;
74269;SDS011;62754;48.252;11.654;2022-12-18T07:02:25;33.03;;;12.48;;
74269;SDS011;62754;48.252;11.654;2022-12-18T07:04:51;31.60;;;12.07;;
74269;SDS011;62754;48.252;11.654;2022-12-18T07:07:17;32.40;;;12.05;;
74269;SDS011;62754;48.252;11.654;2022-12-18T07:09:43;27.17;;;11.25;;
74269;SDS011;62754;48.252;11.654;2022-12-18T07:12:09;34.05;;;12.63;;
74269;SDS011;62754;48.252;11.654;2022-12-18T07:14:34;29.88;;;12.20;;
74269;SDS011;62754;48.252;11.654;2022-12-18T07:17:00;28.85;;;11.75;;
74269;SDS011;62754;48.252;11.654;2022-12-18T07:19:26;25.77;;;11.07;;
74269;SDS011;62754;48.252;11.654;2022-12-18T07:21:52;30.80;;;12.65;;
74269;SDS011;62754;48.252;11.654;2022-12-18T07:24:18;28.98;;;11.50;;
74269;SDS011;62754;48.252;11.654;2022-12-18T07:26:46;26.15;;;10.05;;
74269;SDS011;62754;48.252;11.654;2022-12-18T07:29:12;31.48;;;12.23;;
74269;SDS011;62754;48.252;11.654;2022-12-18T07:31:38;26.95;;;9.90;;
74269;SDS011;62754;48.252;11.654;2022-12-18T07:34:04;29.88;;;11.82;;
74269;SDS011;62754;48.252;11.654;2022-12-18T07:36:30;24.40;;;10.35;;
74269;SDS011;62754;48.252;11.654;2022-12-18T07:38:55;26.58;;;11.32;;
74269;SDS011;62754;48.252;11.654;2022-12-18T07:41:21;33.42;;;12.40;;
74269;SDS011;62754;48.252;11.654;2022-12-18T07:43:47;26.63;;;10.40;;
74269;SDS011;62754;48.252;11.654;2022-12-18T07:46:13;26.90;;;10.85;;
74269;SDS011;62754;48.252;11.654;2022-12-18T07:48:40;28.73;;;11.25;;
74269;SDS011;62754;48.252;11.654;2022-12-18T07:51:07;27.35;;;10.18;;
74269;SDS011;62754;48.252;11.654;2022-12-18T07:53:34;29.38;;;11.55;;
74269;SDS011;62754;48.252;11.654;2022-12-18T07:56:02;29.70;;;10.95;;
74269;SDS011;62754;48.252;11.654;2022-12-18T07:58:30;27.02;;;10.43;;
74269;SDS011;62754;48.252;11.654;2022-12-18T08:01:09;34.53;;;13.35;;
74269;SDS011;62754;48.252;11.654;2022-12-18T08:03:36;26.98;;;11.00;;
74269;SDS011;62754;48.252;11.654;2022-12-18T08:06:04;29.20;;;11.43;;
74269;SDS011;62754;48.252;11.654;2022-12-18T08:08:31;32.05;;;12.15;;
74269;SDS011;62754;48.252;11.654;2022-12-18T08:10:58;29.15;;;11.35;;
74269;SDS011;62754;48.252;11.654;2022-12-18T08:13:24;30.45;;;12.07;;
74269;SDS011;62754;48.252;11.654;2022-12-18T08:15:57;30.65;;;12.07;;
74269;SDS011;62754;48.252;11.654;2022-12-18T08:18:27;31.98;;;11.27;;
74269;SDS011;62754;48.252;11.654;2022-12-18T08:20:54;28.17;;;11.02;;
74269;SDS011;62754;48.252;11.654;2022-12-18T08:23:20;27.80;;;11.85;;
74269;SDS011;62754;48.252;11.654;2022-12-18T08:25:46;30.35;;;11.98;;
74269;SDS011;62754;48.252;11.654;2022-12-18T08:28:11;26.55;;;10.50;;
74269;SDS011;62754;48.252;11.654;2022-12-18T08:30:37;32.67;;;12.15;;
74269;SDS011;62754;48.252;11.654;2022-12-18T08:33:03;30.88;;;11.98;;
74269;SDS011;62754;48.252;11.654;2022-12-18T08:35:29;29.02;;;11.75;;
74269;SDS011;62754;48.252;11.654;2022-12-18T08:37:55;25.95;;;10.73;;
74269;SDS011;62754;48.252;11.654;2022-12-18T08:40:20;29.77;;;10.93;;
74269;SDS011;62754;48.252;11.654;2022-12-18T08:42:46;30.77;;;12.15;;
74269;SDS011;62754;48.252;11.654;2022-12-18T08:45:12;28.15;;;11.57;;
74269;SDS011;62754;48.252;11.654;2022-12-18T08:47:38;25.58;;;10.70;;
74269;SDS011;62754;48.252;11.654;2022-12-18T08:50:03;23.98;;;10.55;;
74269;SDS011;62754;48.252;11.654;2022-12-18T08:52:31;22.42;;;9.48;;
74269;SDS011;62754;48.252;11.654;2022-12-18T08:54:57;25.27;;;10.20;;
74269;SDS011;62754;48.252;11.654;2022-12-18T08:57:23;26.67;;;9.88;;
74269;SDS011;62754;48.252;11.654;2022-12-18T08:59:49;22.50;;;9.15;;
74269;SDS011;62754;48.252;11.654;2022-12-18T09:02:15;25.13;;;9.65;;
74269;SDS011;62754;48.252;11.654;2022-12-18T09:04:40;20.70;;;8.77;;
74269;SDS011;62754;48.252;11.654;2022-12-18T09:07:06;22.13;;;8.65;;
74269;SDS011;62754;48.252;11.654;2022-12-18T09:09:32;21.77;;;8.93;;
74269;SDS011;62754;48.252;11.654;2022-12-18T09:11:57;21.45;;;9.23;;
74269;SDS011;62754;48.252;11.654;2022-12-18T09:14:23;19.17;;;9.20;;
74269;SDS011;62754;48.252;11.654;2022-12-18T09:16:49;21.15;;;9.45;;
74269;SDS011;62754;48.252;11.654;2022-12-18T09:19:15;23.65;;;9.45;;
74269;SDS011;62754;48.252;11.654;2022-12-18T09:21:40;21.45;;;8.52;;
74269;SDS011;62754;48.252;11.654;2022-12-18T09:24:08;18.80;;;8.23;;
74269;SDS011;62754;48.252;11.654;2022-12-18T09:26:37;21.40;;;9.10;;
74269;SDS011;62754;48.252;11.654;2022-12-18T09:29:03;21.75;;;8.95;;
74269;SDS011;62754;48.252;11.654;2022-12-18T09:31:29;26.33;;;10.43;;
74269;SDS011;62754;48.252;11.654;2022-12-18T09:33:55;28.77;;;11.05;;
74269;SDS011;62754;48.252;11.654;2022-12-18T09:36:21;27.58;;;11.82;;
74269;SDS011;62754;48.252;11.654;2022-12-18T09:38:47;30.90;;;11.98;;
74269;SDS011;62754;48.252;11.654;2022-12-18T09:41:16;29.73;;;12.25;;
74269;SDS011;62754;48.252;11.654;2022-12-18T09:44:09;30.55;;;12.05;;
74269;SDS011;62754;48.252;11.654;2022-12-18T09:46:42;31.02;;;13.38;;
74269;SDS011;62754;48.252;11.654;2022-12-18T09:49:12;29.42;;;12.77;;
74269;SDS011;62754;48.252;11.654;2022-12-18T09:51:43;29.98;;;12.43;;
74269;SDS011;62754;48.252;11.654;2022-12-18T09:54:14;33.03;;;12.55;;
74269;SDS011;62754;48.252;11.654;2022-12-18T09:56:47;25.85;;;10.40;;
74269;SDS011;62754;48.252;11.654;2022-12-18T09:59:18;27.85;;;11.95;;
74269;SDS011;62754;48.252;11.654;2022-12-18T10:01:49;27.08;;;11.10;;
74269;SDS011;62754;48.252;11.654;2022-12-18T10:04:14;27.25;;;11.25;;
74269;SDS011;62754;48.252;11.654;2022-12-18T10:11:48;26.92;;;11.48;;
74269;SDS011;62754;48.252;11.654;2022-12-18T10:27:44;24.33;;;9.52;;
74269;SDS011;62754;48.252;11.654;2022-12-18T10:30:14;25.02;;;10.02;;
74269;SDS011;62754;48.252;11.654;2022-12-18T10:32:42;26.40;;;11.40;;
74269;SDS011;62754;48.252;11.654;2022-12-18T10:35:11;23.00;;;9.43;;
74269;SDS011;62754;48.252;11.654;2022-12-18T10:38:00;21.65;;;8.68;;
74269;SDS011;62754;48.252;11.654;2022-12-18T10:40:28;21.13;;;9.60;;
74269;SDS011;62754;48.252;11.654;2022-12-18T10:43:12;27.15;;;10.48;;
74269;SDS011;62754;48.252;11.654;2022-12-18T10:45:39;24.23;;;9.90;;
74269;SDS011;62754;48.252;11.654;2022-12-18T10:48:18;22.40;;;9.05;;
74269;SDS011;62754;48.252;11.654;2022-12-18T10:50:47;22.40;;;9.43;;
74269;SDS011;62754;48.252;11.654;2022-12-18T10:53:18;21.02;;;8.98;;
74269;SDS011;62754;48.252;11.654;2022-12-18T10:55:47;26.60;;;9.45;;
74269;SDS011;62754;48.252;11.654;2022-12-18T10:58:32;28.55;;;10.70;;
74269;SDS011;62754;48.252;11.654;2022-12-18T11:01:04;23.77;;;11.15;;
74269;SDS011;62754;48.252;11.654;2022-12-18T11:03:40;22.70;;;9.98;;
74269;SDS011;62754;48.252;11.654;2022-12-18T11:06:14;24.27;;;10.15;;
74269;SDS011;62754;48.252;11.654;2022-12-18T11:08:42;23.15;;;9.52;;
74269;SDS011;62754;48.252;11.654;2022-12-18T11:11:22;25.55;;;10.45;;
74269;SDS011;62754;48.252;11.654;2022-12-18T11:16:26;25.55;;;10.38;;
74269;SDS011;62754;48.252;11.654;2022-12-18T11:18:54;23.85;;;9.25;;
74269;SDS011;62754;48.252;11.654;2022-12-18T11:21:20;19.23;;;8.63;;
74269;SDS011;62754;48.252;11.654;2022-12-18T11:23:50;21.63;;;9.90;;
74269;SDS011;62754;48.252;11.654;2022-12-18T11:26:17;23.95;;;9.98;;
74269;SDS011;62754;48.252;11.654;2022-12-18T11:28:46;23.35;;;9.40;;
74269;SDS011;62754;48.252;11.654;2022-12-18T11:33:41;23.50;;;9.60;;
74269;SDS011;62754;48.252;11.654;2022-12-18T11:36:11;54.45;;;18.60;;
74269;SDS011;62754;48.252;11.654;2022-12-18T11:38:41;30.58;;;11.65;;
74269;SDS011;62754;48.252;11.654;2022-12-18T11:41:16;26.73;;;11.13;;
74269;SDS011;62754;48.252;11.654;2022-12-18T11:43:54;35.88;;;12.70;;
74269;SDS011;62754;48.252;11.654;2022-12-18T11:49:03;23.45;;;10.07;;
74269;SDS011;62754;48.252;11.654;2022-12-18T11:51:48;27.40;;;10.25;;
74269;SDS011;62754;48.252;11.654;2022-12-18T11:54:28;36.38;;;12.13;;
74269;SDS011;62754;48.252;11.654;2022-12-18T11:56:58;30.17;;;11.77;;
74269;SDS011;62754;48.252;11.654;2022-12-18T12:08:18;24.05;;;10.82;;
74269;SDS011;62754;48.252;11.654;2022-12-18T12:13:30;27.92;;;12.27;;
74269;SDS011;62754;48.252;11.654;2022-12-18T12:31:52;25.42;;;11.43;;
74269;SDS011;62754;48.252;11.654;2022-12-18T12:34:22;26.85;;;11.30;;
74269;SDS011;62754;48.252;11.654;2022-12-18T12:39:37;25.13;;;10.75;;
74269;SDS011;62754;48.252;11.654;2022-12-18T12:42:11;22.90;;;10.07;;
74269;SDS011;62754;48.252;11.654;2022-12-18T12:44:44;27.63;;;11.40;;
74269;SDS011;62754;48.252;11.654;2022-12-18T12:47:35;27.70;;;12.02;;
74269;SDS011;62754;48.252;11.654;2022-12-18T12:50:11;24.13;;;9.82;;
74269;SDS011;62754;48.252;11.654;2022-12-18T12:52:42;26.83;;;11.32;;
74269;SDS011;62754;48.252;11.654;2022-12-18T12:55:16;26.13;;;11.25;;
74269;SDS011;62754;48.252;11.654;2022-12-18T12:57:48;28.02;;;12.00;;
74269;SDS011;62754;48.252;11.654;2022-12-18T13:00:22;26.33;;;10.77;;
74269;SDS011;62754;48.252;11.654;2022-12-18T13:08:09;29.50;;;11.05;;
74269;SDS011;62754;48.252;11.654;2022-12-18T13:10:38;28.85;;;11.55;;
74269;SDS011;62754;48.252;11.654;2022-12-18T13:13:08;26.70;;;10.45;;
74269;SDS011;62754;48.252;11.654;2022-12-18T13:15:48;28.63;;;11.15;;
74269;SDS011;62754;48.252;11.654;2022-12-18T13:18:28;26.15;;;11.02;;
74269;SDS011;62754;48.252;11.654;2022-12-18T13:25:48;28.80;;;12.10;;
74269;SDS011;62754;48.252;11.654;2022-12-18T13:31:10;23.52;;;10.52;;
74269;SDS011;62754;48.252;11.654;2022-12-18T13:33:37;27.63;;;11.70;;
74269;SDS011;62754;48.252;11.654;2022-12-18T13:36:13;24.63;;;11.65;;
74269;SDS011;62754;48.252;11.654;2022-12-18T13:41:39;23.98;;;10.93;;
74269;SDS011;62754;48.252;11.654;2022-12-18T13:47:02;26.20;;;11.25;;
74269;SDS011;62754;48.252;11.654;2022-12-18T13:51:58;25.25;;;11.15;;
74269;SDS011;62754;48.252;11.654;2022-12-18T13:54:29;28.15;;;12.07;;
74269;SDS011;62754;48.252;11.654;2022-12-18T13:57:00;26.08;;;11.55;;
74269;SDS011;62754;48.252;11.654;2022-12-18T13:59:33;26.02;;;11.18;;
74269;SDS011;62754;48.252;11.654;2022-12-18T14:02:01;28.63;;;12.00;;
74269;SDS011;62754;48.252;11.654;2022-12-18T14:04:37;28.25;;;11.65;;
74269;SDS011;62754;48.252;11.654;2022-12-18T14:07:19;27.38;;;11.73;;
74269;SDS011;62754;48.252;11.654;2022-12-18T14:09:57;28.38;;;11.60;;
74269;SDS011;62754;48.252;11.654;2022-12-18T14:12:30;32.25;;;11.43;;
74269;SDS011;62754;48.252;11.654;2022-12-18T14:14:57;26.90;;;12.52;;
74269;SDS011;62754;48.252;11.654;2022-12-18T14:17:23;25.10;;;11.63;;
74269;SDS011;62754;48.252;11.654;2022-12-18T14:19:50;25.23;;;11.25;;
74269;SDS011;62754;48.252;11.654;2022-12-18T14:22:25;25.75;;;11.43;;
74269;SDS011;62754;48.252;11.654;2022-12-18T14:25:04;30.48;;;14.00;;
74269;SDS011;62754;48.252;11.654;2022-12-18T14:30:27;27.55;;;12.05;;
74269;SDS011;62754;48.252;11.654;2022-12-18T14:38:09;23.02;;;10.52;;
74269;SDS011;62754;48.252;11.654;2022-12-18T14:40:43;28.10;;;11.52;;
74269;SDS011;62754;48.252;11.654;2022-12-18T14:43:12;29.33;;;12.73;;
74269;SDS011;62754;48.252;11.654;2022-12-18T14:45:47;28.48;;;12.75;;
74269;SDS011;62754;48.252;11.654;2022-12-18T14:50:39;27.40;;;11.60;;
74269;SDS011;62754;48.252;11.654;2022-12-18T14:53:05;29.42;;;13.05;;
74269;SDS011;62754;48.252;11.654;2022-12-18T14:55:31;26.48;;;12.23;;
74269;SDS011;62754;48.252;11.654;2022-12-18T14:57:57;27.00;;;12.35;;
74269;SDS011;62754;48.252;11.654;2022-12-18T15:00:23;28.45;;;12.32;;
74269;SDS011;62754;48.252;11.654;2022-12-18T15:02:54;29.70;;;13.13;;
74269;SDS011;62754;48.252;11.654;2022-12-18T15:07:53;27.63;;;12.45;;
74269;SDS011;62754;48.252;11.654;2022-12-18T15:10:21;25.75;;;12.00;;
74269;SDS011;62754;48.252;11.654;2022-12-18T15:18:19;29.02;;;11.82;;
74269;SDS011;62754;48.252;11.654;2022-12-18T15:20:55;21.33;;;9.07;;
74269;SDS011;62754;48.252;11.654;2022-12-18T15:28:34;25.30;;;10.00;;
74269;SDS011;62754;48.252;11.654;2022-12-18T15:31:05;22.90;;;9.57;;
74269;SDS011;62754;48.252;11.654;2022-12-18T15:33:35;24.10;;;10.38;;
74269;SDS011;62754;48.252;11.654;2022-12-18T15:36:03;25.05;;;10.90;;
74269;SDS011;62754;48.252;11.654;2022-12-18T15:38:33;20.33;;;9.50;;
74269;SDS011;62754;48.252;11.654;2022-12-18T15:40:59;24.02;;;9.55;;
74269;SDS011;62754;48.252;11.654;2022-12-18T15:43:27;23.45;;;9.68;;
74269;SDS011;62754;48.252;11.654;2022-12-18T15:45:53;22.00;;;9.52;;
74269;SDS011;62754;48.252;11.654;2022-12-18T15:48:20;23.98;;;10.35;;
74269;SDS011;62754;48.252;11.654;2022-12-18T15:50:47;24.63;;;10.02;;
74269;SDS011;62754;48.252;11.654;2022-12-18T15:53:13;28.70;;;10.55;;
74269;SDS011;62754;48.252;11.654;2022-12-18T15:55:39;25.65;;;12.07;;
74269;SDS011;62754;48.252;11.654;2022-12-18T15:58:06;26.45;;;10.68;;
74269;SDS011;62754;48.252;11.654;2022-12-18T16:00:33;22.38;;;10.75;;
74269;SDS011;62754;48.252;11.654;2022-12-18T16:03:02;26.90;;;11.95;;
74269;SDS011;62754;48.252;11.654;2022-12-18T16:05:28;27.13;;;12.18;;
74269;SDS011;62754;48.252;11.654;2022-12-18T16:07:55;28.95;;;12.52;;
74269;SDS011;62754;48.252;11.654;2022-12-18T16:10:21;24.20;;;11.25;;
74269;SDS011;62754;48.252;11.654;2022-12-18T16:12:46;26.45;;;11.43;;
74269;SDS011;62754;48.252;11.654;2022-12-18T16:15:13;27.05;;;11.35;;
74269;SDS011;62754;48.252;11.654;2022-12-18T16:17:40;26.80;;;11.70;;
74269;SDS011;62754;48.252;11.654;2022-12-18T16:20:07;26.08;;;11.75;;
74269;SDS011;62754;48.252;11.654;2022-12-18T16:22:38;26.90;;;11.65;;
74269;SDS011;62754;48.252;11.654;2022-12-18T16:25:04;24.42;;;10.63;;
74269;SDS011;62754;48.252;11.654;2022-12-18T16:27:30;28.27;;;11.98;;
74269;SDS011;62754;48.252;11.654;2022-12-18T16:29:56;25.90;;;11.40;;
74269;SDS011;62754;48.252;11.654;2022-12-18T16:32:21;26.40;;;11.43;;
74269;SDS011;62754;48.252;11.654;2022-12-18T16:34:47;26.90;;;11.90;;
74269;SDS011;62754;48.252;11.654;2022-12-18T16:37:14;27.50;;;12.30;;
74269;SDS011;62754;48.252;11.654;2022-12-18T16:39:41;28.48;;;12.18;;
74269;SDS011;62754;48.252;11.654;2022-12-18T16:44:40;29.17;;;12.55;;
74269;SDS011;62754;48.252;11.654;2022-12-18T16:47:06;32.78;;;13.57;;